createdAt,value
2022-09-16T00:00:51.137Z,99.45
2022-09-16T00:03:19.225Z,98.71
2022-09-16T00:05:49.032Z,98.85
2022-09-16T00:08:16.989Z,98.61
2022-09-16T00:10:44.494Z,98.55
2022-09-16T00:13:13.030Z,98.53
2022-09-16T00:15:49.421Z,98.61
2022-09-16T00:18:16.778Z,98.94
2022-09-16T00:20:49.726Z,98.98
2022-09-16T00:23:17.850Z,98.81
2022-09-16T00:25:44.903Z,98.59
2022-09-16T00:28:12.155Z,98.45
2022-09-16T00:30:39.419Z,98.70
2022-09-16T00:33:06.620Z,99.20
2022-09-16T00:35:33.873Z,99.25
2022-09-16T00:38:00.870Z,97.81
2022-09-16T00:40:28.636Z,98.44
2022-09-16T00:42:55.583Z,98.04
2022-09-16T00:45:27.976Z,98.80
2022-09-16T00:48:01.900Z,98.47
2022-09-16T00:50:41.859Z,98.74
2022-09-16T00:53:13.861Z,98.33
2022-09-16T00:55:43.461Z,99.05
2022-09-16T00:58:22.705Z,99.01
2022-09-16T01:00:51.123Z,99.14
2022-09-16T01:03:19.762Z,99.59
2022-09-16T01:05:48.038Z,98.67
2022-09-16T01:08:15.724Z,99.20
2022-09-16T01:10:43.923Z,99.15
2022-09-16T01:13:15.061Z,98.79
2022-09-16T01:15:57.474Z,99.22
2022-09-16T01:18:39.255Z,99.56
2022-09-16T01:21:22.625Z,99.96
2022-09-16T01:24:04.467Z,99.95
2022-09-16T01:26:58.815Z,100.00
2022-09-16T01:29:57.031Z,99.74
2022-09-16T01:32:41.730Z,100.00
2022-09-16T01:35:41.326Z,100.00
2022-09-16T01:38:37.736Z,100.00
2022-09-16T01:41:11.511Z,100.00
2022-09-16T01:43:52.363Z,100.00
2022-09-16T01:46:35.545Z,100.00
2022-09-16T01:49:25.365Z,100.00
2022-09-16T01:52:36.141Z,100.00
2022-09-16T01:55:08.593Z,100.00
2022-09-16T01:57:49.040Z,100.00
2022-09-16T02:00:17.208Z,100.00
2022-09-16T02:03:11.829Z,100.00
2022-09-16T02:05:46.600Z,100.00
2022-09-16T02:08:19.078Z,100.00
2022-09-16T02:10:54.924Z,100.00
2022-09-16T02:13:39.083Z,100.00
2022-09-16T02:16:14.958Z,100.00
2022-09-16T02:18:46.159Z,100.00
2022-09-16T02:21:16.598Z,100.00
2022-09-16T02:23:54.420Z,100.00
2022-09-16T02:26:28.026Z,100.00
2022-09-16T02:28:56.811Z,100.00
2022-09-16T02:31:30.729Z,100.00
2022-09-16T02:34:07.254Z,100.00
2022-09-16T02:36:37.951Z,100.00
2022-09-16T02:39:12.061Z,100.00
2022-09-16T02:41:42.457Z,100.00
2022-09-16T02:44:11.038Z,100.00
2022-09-16T02:46:49.903Z,100.00
2022-09-16T02:49:34.847Z,100.00
2022-09-16T02:52:24.342Z,100.00
2022-09-16T02:55:14.181Z,100.00
2022-09-16T02:57:42.001Z,100.00
2022-09-16T03:00:10.476Z,100.00
2022-09-16T03:02:37.773Z,100.00
2022-09-16T03:05:06.054Z,100.00
2022-09-16T03:07:34.246Z,100.00
2022-09-16T03:10:01.429Z,100.00
2022-09-16T03:12:34.819Z,100.00
2022-09-16T03:15:29.348Z,100.00
2022-09-16T03:18:18.403Z,100.00
2022-09-16T03:20:51.494Z,100.00
2022-09-16T03:23:31.034Z,100.00
2022-09-16T03:26:09.233Z,100.00
2022-09-16T03:28:45.661Z,100.00
2022-09-16T03:31:24.779Z,100.00
2022-09-16T03:33:58.299Z,100.00
2022-09-16T03:36:33.664Z,100.00
2022-09-16T03:39:06.344Z,100.00
2022-09-16T03:41:35.045Z,100.00
2022-09-16T03:44:04.194Z,100.00
2022-09-16T03:46:33.467Z,100.00
2022-09-16T03:49:01.457Z,100.00
2022-09-16T03:51:31.908Z,100.00
2022-09-16T03:54:00.371Z,100.00
2022-09-16T03:56:28.854Z,100.00
2022-09-16T03:58:56.643Z,100.00
2022-09-16T04:01:23.471Z,100.00
2022-09-16T04:03:52.562Z,100.00
2022-09-16T04:06:20.430Z,100.00
2022-09-16T04:08:50.903Z,100.00
2022-09-16T04:11:18.568Z,100.00
2022-09-16T04:13:45.594Z,100.00
2022-09-16T04:16:12.724Z,100.00
2022-09-16T04:18:39.714Z,100.00
2022-09-16T04:21:06.612Z,100.00
2022-09-16T04:23:33.592Z,100.00
2022-09-16T04:26:02.912Z,100.00
2022-09-16T04:28:32.030Z,100.00
2022-09-16T04:31:06.433Z,100.00
2022-09-16T04:33:35.674Z,100.00
2022-09-16T04:36:09.131Z,100.00
2022-09-16T04:38:36.974Z,100.00
2022-09-16T04:41:21.124Z,100.00
2022-09-16T04:43:52.970Z,100.00
2022-09-16T04:46:20.315Z,100.00
2022-09-16T04:48:48.853Z,100.00
2022-09-16T04:51:16.411Z,100.00
2022-09-16T04:53:44.392Z,100.00
2022-09-16T04:56:15.894Z,100.00
2022-09-16T04:58:45.038Z,100.00
2022-09-16T05:01:17.928Z,100.00
2022-09-16T05:03:47.547Z,100.00
2022-09-16T05:06:20.655Z,100.00
2022-09-16T05:08:49.340Z,100.00
2022-09-16T05:11:21.945Z,100.00
2022-09-16T05:13:48.981Z,100.00
2022-09-16T05:16:19.034Z,100.00
2022-09-16T05:18:48.015Z,99.66
2022-09-16T05:21:20.288Z,100.00
2022-09-16T05:23:47.942Z,100.00
2022-09-16T05:26:21.091Z,100.00
2022-09-16T05:28:48.861Z,100.00
2022-09-16T05:31:16.979Z,98.36
2022-09-16T05:33:47.094Z,95.18
2022-09-16T05:36:16.835Z,91.78
2022-09-16T05:39:04.578Z,90.18
2022-09-16T05:41:34.247Z,87.46
2022-09-16T05:44:01.882Z,85.56
2022-09-16T05:46:29.310Z,85.26
2022-09-16T05:48:56.959Z,84.60
2022-09-16T05:51:24.195Z,84.49
2022-09-16T05:53:52.461Z,79.80
2022-09-16T05:56:20.810Z,78.64
2022-09-16T05:58:48.064Z,80.21
2022-09-16T06:01:19.481Z,77.52
2022-09-16T06:03:48.612Z,77.58
2022-09-16T06:06:28.635Z,77.14
2022-09-16T06:08:58.223Z,76.98
2022-09-16T06:11:26.912Z,76.24
2022-09-16T06:14:02.879Z,78.33
2022-09-16T06:16:34.073Z,77.62
2022-09-16T06:19:03.516Z,76.30
2022-09-16T06:21:30.847Z,77.49
2022-09-16T06:23:58.509Z,72.42
2022-09-16T06:26:27.916Z,72.17
2022-09-16T06:28:55.850Z,70.75
2022-09-16T06:31:28.394Z,71.67
2022-09-16T06:33:58.096Z,71.48
2022-09-16T06:36:32.086Z,73.60
2022-09-16T06:38:59.265Z,75.88
2022-09-16T06:41:26.514Z,74.83
2022-09-16T06:43:53.615Z,74.86
2022-09-16T06:46:23.827Z,78.03
2022-09-16T06:48:53.991Z,77.84
2022-09-16T06:51:23.658Z,78.74
2022-09-16T06:53:51.623Z,76.02
2022-09-16T06:56:22.402Z,71.01
2022-09-16T06:58:53.631Z,69.99
2022-09-16T07:01:23.635Z,70.65
2022-09-16T07:03:52.983Z,71.89
2022-09-16T07:06:26.655Z,71.17
2022-09-16T07:09:06.287Z,70.91
2022-09-16T07:11:33.628Z,67.83
2022-09-16T07:14:02.559Z,66.91
2022-09-16T07:16:29.609Z,64.14
2022-09-16T07:19:01.172Z,67.12
2022-09-16T07:21:30.692Z,62.79
2022-09-16T07:24:02.234Z,61.46
2022-09-16T07:26:31.702Z,60.97
2022-09-16T07:29:03.552Z,56.61
2022-09-16T07:31:38.262Z,50.74
2022-09-16T07:34:07.345Z,47.19
2022-09-16T07:36:38.426Z,45.41
2022-09-16T07:39:06.884Z,45.52
2022-09-16T07:41:36.741Z,41.88
2022-09-16T07:44:05.038Z,42.30
2022-09-16T07:46:34.931Z,41.11
2022-09-16T07:49:04.087Z,41.36
2022-09-16T07:51:31.607Z,42.01
2022-09-16T07:54:08.937Z,39.39
2022-09-16T07:56:38.521Z,38.83
2022-09-16T07:59:07.428Z,38.50
2022-09-16T08:01:37.038Z,36.85
2022-09-16T08:04:06.949Z,37.10
2022-09-16T08:06:38.031Z,37.12
2022-09-16T08:09:15.600Z,38.06
2022-09-16T08:11:52.051Z,36.32
2022-09-16T08:14:19.311Z,36.53
2022-09-16T08:16:46.855Z,36.72
2022-09-16T08:19:14.272Z,36.27
2022-09-16T08:21:41.184Z,36.59
2022-09-16T08:24:09.889Z,36.27
2022-09-16T08:26:37.163Z,36.03
2022-09-16T08:29:08.949Z,35.00
2022-09-16T08:31:37.596Z,34.53
2022-09-16T08:34:05.432Z,34.54
2022-09-16T08:36:35.464Z,32.98
2022-09-16T08:39:02.634Z,33.31
2022-09-16T08:41:41.774Z,32.83
2022-09-16T08:44:14.577Z,33.34
2022-09-16T08:46:51.756Z,32.49
2022-09-16T08:50:00.282Z,32.84
2022-09-16T08:52:36.621Z,32.16
2022-09-16T08:55:07.365Z,32.21
2022-09-16T08:57:40.186Z,31.75
2022-09-16T09:00:16.280Z,31.57
2022-09-16T09:03:01.871Z,32.29
2022-09-16T09:06:02.419Z,31.88
2022-09-16T09:08:35.224Z,31.56
2022-09-16T09:11:32.543Z,32.22
2022-09-16T09:14:07.203Z,32.23
2022-09-16T09:16:46.830Z,31.87
2022-09-16T09:19:39.848Z,31.17
2022-09-16T09:22:36.114Z,31.04
2022-09-16T09:25:23.472Z,30.78
2022-09-16T09:27:55.864Z,30.80
2022-09-16T09:30:28.085Z,30.60
2022-09-16T09:33:44.280Z,31.95
2022-09-16T09:36:27.762Z,31.33
2022-09-16T09:39:04.709Z,30.94
2022-09-16T09:41:39.974Z,30.07
2022-09-16T09:44:55.259Z,29.51
2022-09-16T09:47:33.141Z,29.74
2022-09-16T09:50:12.567Z,29.80
2022-09-16T09:52:52.806Z,30.01
2022-09-16T09:55:22.752Z,29.50
2022-09-16T09:58:14.049Z,30.10
2022-09-16T10:00:41.674Z,29.78
2022-09-16T10:03:17.784Z,30.43
2022-09-16T10:05:47.134Z,30.03
2022-09-16T10:08:49.336Z,30.03
2022-09-16T10:11:23.164Z,29.96
2022-09-16T10:13:53.121Z,30.13
2022-09-16T10:16:23.177Z,30.73
2022-09-16T10:19:04.060Z,30.79
2022-09-16T10:22:12.099Z,29.81
2022-09-16T10:24:42.422Z,30.77
2022-09-16T10:27:27.440Z,30.47
2022-09-16T10:30:16.123Z,30.55
2022-09-16T10:32:48.261Z,30.76
2022-09-16T10:35:23.485Z,31.16
2022-09-16T10:37:54.563Z,30.61
2022-09-16T10:40:23.653Z,31.16
2022-09-16T10:42:53.695Z,30.73
2022-09-16T10:45:29.781Z,30.59
2022-09-16T10:48:04.875Z,30.80
2022-09-16T10:50:34.221Z,31.48
2022-09-16T10:53:00.977Z,32.21
2022-09-16T10:55:36.730Z,31.56
2022-09-16T10:58:17.099Z,31.73
2022-09-16T11:00:57.926Z,32.07
2022-09-16T11:03:49.834Z,32.59
2022-09-16T11:06:32.901Z,33.09
2022-09-16T11:09:24.646Z,33.56
2022-09-16T11:12:12.022Z,33.53
2022-09-16T11:15:00.528Z,34.38
2022-09-16T11:17:45.294Z,35.06
2022-09-16T11:20:18.273Z,33.96
2022-09-16T11:22:54.956Z,34.28
2022-09-16T11:25:47.716Z,34.55
2022-09-16T11:28:19.235Z,34.64
2022-09-16T11:31:15.738Z,34.35
2022-09-16T11:33:49.988Z,34.61
2022-09-16T11:36:36.715Z,34.74
2022-09-16T11:39:03.539Z,35.44
2022-09-16T11:41:33.843Z,34.44
2022-09-16T11:44:19.548Z,34.20
2022-09-16T11:46:55.412Z,33.94
2022-09-16T11:49:25.847Z,34.68
2022-09-16T11:52:29.810Z,34.41
2022-09-16T11:55:18.507Z,34.83
2022-09-16T11:57:53.137Z,36.15
2022-09-16T12:00:20.649Z,36.35
2022-09-16T12:03:26.623Z,36.55
2022-09-16T12:06:05.363Z,36.55
2022-09-16T12:08:50.354Z,36.39
2022-09-16T12:11:33.810Z,36.48
2022-09-16T12:14:15.595Z,36.74
2022-09-16T12:16:55.194Z,37.72
2022-09-16T12:19:49.087Z,37.72
2022-09-16T12:22:23.226Z,38.48
2022-09-16T12:25:01.016Z,38.42
2022-09-16T12:28:12.994Z,37.79
2022-09-16T12:30:46.877Z,38.24
2022-09-16T12:33:25.725Z,38.71
2022-09-16T12:35:53.040Z,39.16
2022-09-16T12:38:21.697Z,39.30
2022-09-16T12:41:06.908Z,40.47
2022-09-16T12:44:33.088Z,40.35
2022-09-16T12:47:26.044Z,40.89
2022-09-16T12:50:22.492Z,41.15
2022-09-16T12:53:33.286Z,41.99
2022-09-16T12:56:14.991Z,43.32
2022-09-16T12:59:20.593Z,44.27
2022-09-16T13:01:56.613Z,45.91
2022-09-16T13:04:34.548Z,47.40
2022-09-16T13:07:02.560Z,48.48
2022-09-16T13:09:37.434Z,48.05
2022-09-16T13:12:36.419Z,48.75
2022-09-16T13:14:58.325Z,48.61
2022-09-16T13:17:36.385Z,48.84
2022-09-16T13:20:27.275Z,49.93
2022-09-16T13:23:04.345Z,49.17
2022-09-16T13:25:50.270Z,50.56
2022-09-16T13:28:41.038Z,51.84
2022-09-16T13:31:15.627Z,52.02
2022-09-16T13:34:02.220Z,51.54
2022-09-16T13:36:32.488Z,52.03
2022-09-16T13:39:05.681Z,53.21
2022-09-16T13:41:36.389Z,53.70
2022-09-16T13:44:37.617Z,55.11
2022-09-16T13:47:15.876Z,54.97
2022-09-16T13:50:21.656Z,54.85
2022-09-16T13:52:49.377Z,55.08
2022-09-16T13:55:26.928Z,55.03
2022-09-16T13:58:05.674Z,54.66
2022-09-16T14:00:49.769Z,54.76
2022-09-16T14:03:44.595Z,55.54
2022-09-16T14:06:31.152Z,55.18
2022-09-16T14:09:09.478Z,54.67
2022-09-16T14:12:09.388Z,54.84
2022-09-16T14:14:46.869Z,54.94
2022-09-16T14:17:28.343Z,54.80
2022-09-16T14:20:00.623Z,57.01
2022-09-16T14:22:28.257Z,55.93
2022-09-16T14:25:06.298Z,56.17
2022-09-16T14:27:40.291Z,55.74
2022-09-16T14:30:17.390Z,55.86
2022-09-16T14:32:46.429Z,56.80
2022-09-16T14:35:21.592Z,56.69
2022-09-16T14:37:53.851Z,57.30
2022-09-16T14:40:25.363Z,57.54
2022-09-16T14:43:12.667Z,57.32
2022-09-16T14:45:49.870Z,57.32
2022-09-16T14:48:19.097Z,57.47
2022-09-16T14:50:48.580Z,59.69
2022-09-16T14:53:55.458Z,58.33
2022-09-16T14:56:29.550Z,58.66
2022-09-16T14:58:57.802Z,59.30
2022-09-16T15:01:28.498Z,59.71
2022-09-16T15:04:17.337Z,60.92
2022-09-16T15:06:55.156Z,62.14
2022-09-16T15:09:48.583Z,63.21
2022-09-16T15:12:24.644Z,67.46
2022-09-16T15:14:52.157Z,69.63
2022-09-16T15:17:21.044Z,73.94
2022-09-16T15:19:56.027Z,78.46
2022-09-16T15:22:24.252Z,81.31
2022-09-16T15:24:55.565Z,81.20
2022-09-16T15:27:29.441Z,81.75
2022-09-16T15:30:00.250Z,85.67
2022-09-16T15:32:32.123Z,88.57
2022-09-16T15:35:20.007Z,87.57
2022-09-16T15:37:47.390Z,89.65
2022-09-16T15:40:28.526Z,91.96
2022-09-16T15:43:28.406Z,91.53
2022-09-16T15:46:02.225Z,92.19
2022-09-16T15:48:43.398Z,92.28
2022-09-16T15:51:40.411Z,94.39
2022-09-16T15:54:20.055Z,96.11
2022-09-16T15:56:59.816Z,97.91
2022-09-16T15:59:43.377Z,97.70
2022-09-16T16:02:43.186Z,99.36
2022-09-16T16:05:14.785Z,99.51
2022-09-16T16:07:51.301Z,100.00
2022-09-16T16:10:25.969Z,98.90
2022-09-16T16:12:59.083Z,100.00
2022-09-16T16:15:38.206Z,100.00
2022-09-16T16:18:08.599Z,100.00
2022-09-16T16:20:37.664Z,99.65
2022-09-16T16:23:04.848Z,99.72
2022-09-16T16:25:32.789Z,100.00
2022-09-16T16:27:59.973Z,100.00
2022-09-16T16:30:27.221Z,100.00
2022-09-16T16:32:54.421Z,100.00
2022-09-16T16:35:21.853Z,100.00
2022-09-16T16:37:49.105Z,100.00
2022-09-16T16:40:16.707Z,100.00
2022-09-16T16:42:44.564Z,100.00
2022-09-16T16:45:13.754Z,100.00
2022-09-16T16:47:41.769Z,100.00
2022-09-16T16:50:09.742Z,100.00
2022-09-16T16:52:37.410Z,100.00
2022-09-16T16:55:06.205Z,100.00
2022-09-16T16:57:33.525Z,100.00
2022-09-16T17:00:01.200Z,100.00
2022-09-16T17:02:28.265Z,100.00
2022-09-16T17:04:56.083Z,100.00
2022-09-16T17:07:26.617Z,100.00
2022-09-16T17:09:55.496Z,100.00
2022-09-16T17:12:23.212Z,100.00
2022-09-16T17:14:50.590Z,100.00
2022-09-16T17:17:18.468Z,100.00
2022-09-16T17:19:45.857Z,100.00
2022-09-16T17:22:14.262Z,100.00
2022-09-16T17:24:43.029Z,100.00
2022-09-16T17:27:10.255Z,100.00
2022-09-16T17:29:40.558Z,100.00
2022-09-16T17:32:08.870Z,100.00
2022-09-16T17:34:36.514Z,100.00
2022-09-16T17:37:05.274Z,100.00
2022-09-16T17:39:33.148Z,100.00
2022-09-16T17:42:06.835Z,100.00
2022-09-16T17:44:40.871Z,100.00
2022-09-16T17:47:08.242Z,100.00
2022-09-16T17:49:35.897Z,100.00
2022-09-16T17:52:03.463Z,100.00
2022-09-16T17:54:32.247Z,100.00
2022-09-16T17:57:00.670Z,100.00
2022-09-16T17:59:28.051Z,100.00
2022-09-16T18:01:55.666Z,100.00
2022-09-16T18:04:23.141Z,100.00
2022-09-16T18:06:51.759Z,100.00
2022-09-16T18:09:19.669Z,100.00
2022-09-16T18:11:47.592Z,100.00
2022-09-16T18:14:18.063Z,100.00
2022-09-16T18:16:50.939Z,100.00
2022-09-16T18:19:21.342Z,100.00
2022-09-16T18:21:48.733Z,100.00
2022-09-16T18:24:16.623Z,100.00
2022-09-16T18:26:44.433Z,100.00
2022-09-16T18:29:13.763Z,100.00
2022-09-16T18:31:46.239Z,100.00
2022-09-16T18:34:14.781Z,100.00
2022-09-16T18:36:43.002Z,100.00
2022-09-16T18:39:16.053Z,100.00
2022-09-16T18:41:45.582Z,100.00
2022-09-16T18:44:20.372Z,100.00
2022-09-16T18:46:48.116Z,100.00
2022-09-16T18:49:16.864Z,100.00
2022-09-16T18:51:50.848Z,100.00
2022-09-16T18:54:28.679Z,100.00
2022-09-16T18:57:01.658Z,100.00
2022-09-16T18:59:31.595Z,100.00
2022-09-16T19:02:01.440Z,100.00
2022-09-16T19:04:31.978Z,100.00
2022-09-16T19:07:08.537Z,100.00
2022-09-16T19:09:38.494Z,100.00
2022-09-16T19:12:09.122Z,100.00
2022-09-16T19:14:37.149Z,100.00
2022-09-16T19:17:05.233Z,100.00
2022-09-16T19:19:33.027Z,100.00
2022-09-16T19:22:06.174Z,100.00
2022-09-16T19:24:34.691Z,100.00
2022-09-16T19:27:03.770Z,100.00
2022-09-16T19:29:33.207Z,100.00
2022-09-16T19:32:01.834Z,100.00
2022-09-16T19:34:30.400Z,100.00
2022-09-16T19:36:58.074Z,100.00
2022-09-16T19:39:27.461Z,100.00
2022-09-16T19:41:56.353Z,100.00
2022-09-16T19:44:26.747Z,100.00
2022-09-16T19:46:54.860Z,100.00
2022-09-16T19:49:23.814Z,100.00
2022-09-16T19:51:54.635Z,100.00
2022-09-16T19:54:24.555Z,100.00
2022-09-16T19:56:52.707Z,100.00
2022-09-16T19:59:21.439Z,100.00
2022-09-16T20:01:49.874Z,100.00
2022-09-16T20:04:20.219Z,100.00
2022-09-16T20:06:48.871Z,100.00
2022-09-16T20:09:17.614Z,100.00
2022-09-16T20:11:47.183Z,100.00
2022-09-16T20:14:19.649Z,100.00
2022-09-16T20:16:48.506Z,100.00
2022-09-16T20:19:18.428Z,100.00
2022-09-16T20:21:46.381Z,100.00
2022-09-16T20:24:18.990Z,100.00
2022-09-16T20:26:48.167Z,100.00
2022-09-16T20:29:18.038Z,100.00
2022-09-16T20:31:49.139Z,100.00
2022-09-16T20:34:20.499Z,100.00
2022-09-16T20:36:49.430Z,100.00
2022-09-16T20:39:18.540Z,100.00
2022-09-16T20:41:51.550Z,100.00
2022-09-16T20:44:18.985Z,100.00
2022-09-16T20:46:47.253Z,100.00
2022-09-16T20:49:17.312Z,100.00
2022-09-16T20:51:45.682Z,100.00
2022-09-16T20:54:16.399Z,100.00
2022-09-16T20:56:47.488Z,100.00
2022-09-16T20:59:17.280Z,100.00
2022-09-16T21:01:45.559Z,100.00
2022-09-16T21:04:17.244Z,100.00
2022-09-16T21:06:45.221Z,100.00
2022-09-16T21:09:14.769Z,100.00
2022-09-16T21:11:45.948Z,100.00
2022-09-16T21:14:16.660Z,100.00
2022-09-16T21:16:46.128Z,100.00
2022-09-16T21:19:14.458Z,100.00
2022-09-16T21:21:48.923Z,100.00
2022-09-16T21:24:16.927Z,100.00
2022-09-16T21:26:45.075Z,100.00
2022-09-16T21:29:15.546Z,100.00
2022-09-16T21:31:43.782Z,100.00
2022-09-16T21:34:16.260Z,100.00
2022-09-16T21:36:44.972Z,100.00
2022-09-16T21:39:14.098Z,100.00
2022-09-16T21:41:41.638Z,100.00
2022-09-16T21:44:09.083Z,100.00
2022-09-16T21:46:41.877Z,100.00
2022-09-16T21:49:25.879Z,100.00
2022-09-16T21:51:55.782Z,100.00
2022-09-16T21:54:23.468Z,100.00
2022-09-16T21:56:51.915Z,100.00
2022-09-16T21:59:22.123Z,100.00
2022-09-16T22:01:51.353Z,100.00
2022-09-16T22:04:23.494Z,100.00
2022-09-16T22:06:52.947Z,100.00
2022-09-16T22:09:20.004Z,100.00
2022-09-16T22:11:47.893Z,100.00
2022-09-16T22:14:16.625Z,100.00
2022-09-16T22:16:44.480Z,100.00
2022-09-16T22:19:12.895Z,100.00
2022-09-16T22:21:43.956Z,100.00
2022-09-16T22:24:11.841Z,100.00
2022-09-16T22:26:39.787Z,100.00
2022-09-16T22:29:09.257Z,100.00
2022-09-16T22:31:38.479Z,100.00
2022-09-16T22:34:05.851Z,100.00
2022-09-16T22:36:35.484Z,100.00
2022-09-16T22:39:07.682Z,100.00
2022-09-16T22:41:35.439Z,100.00
2022-09-16T22:44:02.608Z,100.00
2022-09-16T22:46:33.493Z,100.00
2022-09-16T22:49:01.724Z,100.00
2022-09-16T22:51:29.552Z,100.00
2022-09-16T22:53:56.826Z,100.00
2022-09-16T22:56:28.846Z,100.00
2022-09-16T22:58:59.009Z,100.00
2022-09-16T23:01:38.741Z,100.00
2022-09-16T23:04:07.496Z,100.00
2022-09-16T23:06:36.139Z,100.00
2022-09-16T23:09:04.833Z,100.00
2022-09-16T23:11:33.793Z,100.00
2022-09-16T23:14:01.989Z,100.00
2022-09-16T23:16:36.251Z,100.00
2022-09-16T23:19:06.850Z,100.00
2022-09-16T23:21:34.162Z,100.00
2022-09-16T23:24:03.601Z,100.00
2022-09-16T23:26:33.585Z,100.00
2022-09-16T23:29:03.258Z,100.00
2022-09-16T23:31:35.888Z,100.00
2022-09-16T23:34:07.824Z,100.00
2022-09-16T23:36:37.902Z,100.00
2022-09-16T23:39:07.228Z,100.00
2022-09-16T23:41:35.556Z,100.00
2022-09-16T23:44:03.244Z,100.00
2022-09-16T23:46:31.514Z,100.00
2022-09-16T23:48:59.248Z,100.00
2022-09-16T23:51:28.652Z,100.00
2022-09-16T23:53:57.601Z,100.00
2022-09-16T23:56:25.035Z,100.00
2022-09-16T23:58:53.188Z,100.00
